Terminal Aerodrome Forecast
Issued by NWS

Home | Current Version | Previous Version | Text Only | Print | Product List | Glossary On
Versions: 1 2 3 4 5 6 7 8 9 10 11 12 13 14 15 16 17 18 19 20 21 22 23 24 25
541
FTUS43 KLSX 251305 AAA
TAFUIN
TAF AMD
KUIN 251305Z 2513/2612 17011KT P6SM VCSH OVC040
      TEMPO 2513/2514 3SM -RA BKN009
     FM251900 13009KT 6SM -SHRA VCTS BKN045CB
     FM252300 10007KT P6SM OVC040
     FM260600 13006KT P6SM BKN015
     FM260900 17006KT P6SM OVC009=

USA.gov is the U.S. government's official web portal to all federal, state and local government web resources and services.